createdAt,value
2018-09-09T00:00:27.915Z,9.00
2018-09-09T00:01:27.903Z,8.00
2018-09-09T00:02:27.908Z,8.70
2018-09-09T00:03:27.875Z,8.50
2018-09-09T00:04:27.863Z,8.20
2018-09-09T00:05:27.861Z,8.00
2018-09-09T00:06:27.839Z,7.80
2018-09-09T00:07:27.828Z,8.50
2018-09-09T00:08:27.809Z,8.70
2018-09-09T00:09:27.797Z,8.00
2018-09-09T00:10:27.783Z,9.10
2018-09-09T00:11:27.767Z,8.40
2018-09-09T00:12:27.758Z,8.70
2018-09-09T00:13:27.741Z,8.30
2018-09-09T00:14:27.726Z,8.70
2018-09-09T00:15:27.714Z,9.20
2018-09-09T00:16:27.702Z,8.40
2018-09-09T00:17:27.688Z,8.30
2018-09-09T00:18:27.678Z,8.80
2018-09-09T00:19:27.658Z,8.60
2018-09-09T00:20:27.646Z,9.00
2018-09-09T00:21:27.631Z,9.30
2018-09-09T00:22:27.618Z,9.50
2018-09-09T00:23:27.605Z,8.80
2018-09-09T00:24:27.589Z,9.40
2018-09-09T00:25:27.573Z,9.00
2018-09-09T00:26:27.567Z,8.90
2018-09-09T00:27:27.551Z,9.00
2018-09-09T00:28:27.536Z,9.00
2018-09-09T00:29:27.522Z,8.90
2018-09-09T00:30:27.507Z,8.60
2018-09-09T00:31:27.493Z,9.20
2018-09-09T00:32:27.479Z,9.70
2018-09-09T00:33:27.471Z,9.10
2018-09-09T00:34:27.456Z,9.80
2018-09-09T00:35:27.440Z,9.80
2018-09-09T00:36:27.427Z,9.80
2018-09-09T00:37:27.412Z,10.20
2018-09-09T00:38:27.398Z,10.30
2018-09-09T00:39:27.385Z,9.70
2018-09-09T00:40:27.371Z,9.60
2018-09-09T00:41:27.358Z,9.20
2018-09-09T00:42:27.343Z,9.40
2018-09-09T00:43:27.331Z,9.50
2018-09-09T00:44:27.314Z,10.10
2018-09-09T00:45:27.312Z,10.30
2018-09-09T00:46:27.290Z,9.70
2018-09-09T00:47:27.274Z,9.00
2018-09-09T00:48:27.260Z,9.50
2018-09-09T00:49:27.247Z,8.70
2018-09-09T00:50:27.235Z,8.70
2018-09-09T00:51:27.222Z,9.10
2018-09-09T00:52:27.206Z,8.20
2018-09-09T00:53:27.192Z,9.10
2018-09-09T00:54:27.180Z,9.30
2018-09-09T00:55:27.168Z,9.30
2018-09-09T00:56:27.150Z,8.40
2018-09-09T00:57:27.136Z,9.50
2018-09-09T00:58:27.134Z,8.80
2018-09-09T00:59:27.109Z,8.60
2018-09-09T01:00:27.104Z,8.60
2018-09-09T01:01:27.080Z,9.10
2018-09-09T01:02:27.067Z,8.50
2018-09-09T01:03:27.061Z,8.60
2018-09-09T01:04:27.043Z,8.90
2018-09-09T01:05:27.030Z,9.00
2018-09-09T01:06:27.012Z,9.00
2018-09-09T01:07:26.999Z,8.60
2018-09-09T01:08:26.986Z,8.50
2018-09-09T01:09:26.979Z,8.90
2018-09-09T01:10:26.963Z,9.40
2018-09-09T01:11:26.944Z,8.60
2018-09-09T01:12:26.928Z,9.20
2018-09-09T01:13:26.917Z,9.10
2018-09-09T01:14:26.903Z,9.40
2018-09-09T01:15:26.897Z,9.70
2018-09-09T01:16:26.874Z,9.30
2018-09-09T01:17:26.861Z,9.50
2018-09-09T01:18:26.850Z,8.70
2018-09-09T01:19:26.833Z,8.80
2018-09-09T01:20:26.818Z,8.90
2018-09-09T01:21:26.803Z,9.00
2018-09-09T01:22:26.793Z,8.50
2018-09-09T01:23:26.780Z,8.60
2018-09-09T01:24:26.763Z,8.50
2018-09-09T01:25:26.751Z,9.20
2018-09-09T01:26:26.734Z,8.80
2018-09-09T01:27:26.723Z,8.40
2018-09-09T01:28:26.715Z,8.20
2018-09-09T01:29:26.693Z,8.60
2018-09-09T01:30:26.679Z,8.50
2018-09-09T01:31:26.668Z,8.50
2018-09-09T01:32:26.652Z,8.50
2018-09-09T01:33:26.637Z,8.30
2018-09-09T01:34:26.622Z,8.50
2018-09-09T01:35:26.610Z,8.50
2018-09-09T01:36:26.604Z,8.70
2018-09-09T01:37:26.581Z,8.80
2018-09-09T01:38:26.570Z,8.40
2018-09-09T01:39:26.554Z,8.20
2018-09-09T01:40:26.542Z,8.40
2018-09-09T01:41:26.524Z,8.40
2018-09-09T01:42:26.520Z,8.80
2018-09-09T01:43:26.502Z,9.40
2018-09-09T01:44:26.495Z,8.80
2018-09-09T01:45:26.469Z,9.40
2018-09-09T01:46:26.457Z,9.00
2018-09-09T01:47:26.442Z,8.80
2018-09-09T01:48:26.430Z,9.00
2018-09-09T01:49:26.421Z,8.10
2018-09-09T01:50:26.407Z,8.50
2018-09-09T01:51:26.396Z,8.60
2018-09-09T01:52:26.372Z,9.30
2018-09-09T01:53:26.357Z,9.20
2018-09-09T01:54:26.342Z,9.40
2018-09-09T01:55:26.329Z,9.10
2018-09-09T01:56:26.317Z,9.00
2018-09-09T01:57:26.301Z,8.90
2018-09-09T01:58:26.287Z,8.60
2018-09-09T01:59:26.273Z,8.40
2018-09-09T02:00:26.259Z,8.90
2018-09-09T02:01:26.244Z,9.40
2018-09-09T02:02:26.230Z,10.00
2018-09-09T02:03:26.217Z,10.00
2018-09-09T02:04:26.207Z,9.90
2018-09-09T02:05:26.189Z,9.40
2018-09-09T02:06:26.187Z,9.80
2018-09-09T02:07:26.160Z,9.90
2018-09-09T02:08:26.146Z,9.30
2018-09-09T02:09:26.143Z,9.60
2018-09-09T02:10:26.118Z,9.50
2018-09-09T02:11:26.105Z,9.60
2018-09-09T02:12:26.092Z,10.70
2018-09-09T02:13:26.076Z,9.80
2018-09-09T02:14:26.062Z,9.20
2018-09-09T02:15:26.050Z,9.70
2018-09-09T02:16:26.038Z,9.60
2018-09-09T02:17:26.021Z,9.30
2018-09-09T02:18:26.006Z,9.60
2018-09-09T02:19:25.991Z,9.90
2018-09-09T02:20:25.982Z,9.70
2018-09-09T02:21:25.965Z,9.70
2018-09-09T02:22:25.951Z,9.30
2018-09-09T02:23:25.937Z,9.50
2018-09-09T02:24:25.922Z,9.70
2018-09-09T02:25:25.908Z,9.40
2018-09-09T02:26:25.894Z,10.40
2018-09-09T02:27:25.879Z,9.80
2018-09-09T02:28:25.868Z,9.90
2018-09-09T02:29:25.861Z,9.70
2018-09-09T02:30:25.837Z,9.90
2018-09-09T02:31:25.823Z,10.00
2018-09-09T02:32:25.809Z,9.90
2018-09-09T02:33:25.796Z,9.90
2018-09-09T02:34:25.785Z,9.80
2018-09-09T02:35:25.768Z,9.80
2018-09-09T02:36:25.764Z,9.80
2018-09-09T02:37:25.741Z,10.50
2018-09-09T02:38:25.730Z,9.60
2018-09-09T02:39:25.722Z,9.80
2018-09-09T02:40:25.698Z,10.40
2018-09-09T02:41:25.684Z,9.70
2018-09-09T02:42:25.670Z,10.10
2018-09-09T02:43:25.658Z,9.70
2018-09-09T02:44:25.657Z,9.70
2018-09-09T02:45:25.629Z,11.00
2018-09-09T02:46:25.615Z,9.80
2018-09-09T02:47:25.601Z,9.80
2018-09-09T02:48:25.587Z,10.10
2018-09-09T02:49:25.574Z,10.60
2018-09-09T02:50:25.558Z,10.40
2018-09-09T02:51:25.547Z,10.10
2018-09-09T02:52:25.531Z,10.20
2018-09-09T02:53:25.523Z,10.30
2018-09-09T02:54:25.504Z,10.80
2018-09-09T02:55:25.489Z,9.90
2018-09-09T02:56:25.477Z,9.80
2018-09-09T02:57:25.461Z,10.50
2018-09-09T02:58:25.448Z,9.80
2018-09-09T02:59:25.435Z,10.00
2018-09-09T03:00:25.417Z,11.00
2018-09-09T03:01:25.407Z,9.90
2018-09-09T03:02:25.392Z,10.00
2018-09-09T03:03:25.379Z,10.40
2018-09-09T03:04:25.384Z,10.20
2018-09-09T03:05:25.346Z,9.90
2018-09-09T03:06:25.335Z,10.50
2018-09-09T03:07:25.320Z,10.80
2018-09-09T03:08:25.305Z,10.10
2018-09-09T03:09:25.290Z,10.50
2018-09-09T03:10:25.278Z,9.90
2018-09-09T03:11:25.265Z,10.80
2018-09-09T03:12:25.257Z,9.70
2018-09-09T03:13:25.238Z,10.20
2018-09-09T03:14:25.220Z,10.40
2018-09-09T03:15:25.205Z,10.20
2018-09-09T03:16:25.188Z,9.80
2018-09-09T03:17:25.180Z,10.80
2018-09-09T03:18:25.165Z,10.50
2018-09-09T03:19:25.161Z,10.20
2018-09-09T03:20:25.136Z,9.70
2018-09-09T03:21:25.118Z,9.90
2018-09-09T03:22:25.106Z,10.80
2018-09-09T03:23:25.091Z,10.60
2018-09-09T03:24:25.077Z,10.70
2018-09-09T03:25:25.070Z,10.40
2018-09-09T03:26:25.048Z,11.30
2018-09-09T03:27:25.034Z,10.70
2018-09-09T03:28:25.066Z,10.70
2018-09-09T03:29:25.012Z,11.00
2018-09-09T03:30:24.996Z,10.60
2018-09-09T03:31:24.979Z,10.90
2018-09-09T03:32:24.971Z,10.50
2018-09-09T03:33:24.949Z,10.30
2018-09-09T03:34:24.935Z,10.60
2018-09-09T03:35:24.922Z,10.70
2018-09-09T03:36:24.907Z,10.70
2018-09-09T03:37:24.893Z,10.90
2018-09-09T03:38:24.879Z,10.90
2018-09-09T03:39:24.872Z,9.80
2018-09-09T03:40:24.853Z,10.60
2018-09-09T03:41:24.836Z,11.00
2018-09-09T03:42:24.823Z,11.40
2018-09-09T03:43:24.807Z,10.70
2018-09-09T03:44:24.793Z,11.00
2018-09-09T03:45:24.779Z,10.20
2018-09-09T03:46:24.765Z,10.80
2018-09-09T03:47:24.754Z,10.60
2018-09-09T03:48:24.734Z,10.50
2018-09-09T03:49:24.726Z,10.20
2018-09-09T03:50:24.709Z,11.00
2018-09-09T03:51:24.692Z,11.00
2018-09-09T03:52:24.678Z,11.10
2018-09-09T03:53:24.663Z,10.70
2018-09-09T03:54:24.651Z,10.70
2018-09-09T03:55:24.640Z,10.80
2018-09-09T03:56:24.626Z,10.60
2018-09-09T03:57:24.608Z,10.10
2018-09-09T03:58:24.595Z,10.80
2018-09-09T03:59:24.578Z,10.80
2018-09-09T04:00:24.566Z,9.90
2018-09-09T04:01:24.549Z,10.80
2018-09-09T04:02:24.535Z,10.60
2018-09-09T04:03:24.528Z,10.40
2018-09-09T04:04:24.506Z,10.80
2018-09-09T04:05:24.493Z,10.90
2018-09-09T04:06:24.477Z,10.80
2018-09-09T04:07:24.464Z,10.60
2018-09-09T04:08:24.454Z,11.00
2018-09-09T04:09:24.436Z,10.20
2018-09-09T04:10:24.425Z,11.00
2018-09-09T04:11:24.408Z,10.50
2018-09-09T04:12:24.397Z,11.10
2018-09-09T04:13:24.382Z,10.30
2018-09-09T04:14:24.364Z,11.10
2018-09-09T04:15:24.350Z,10.20
2018-09-09T04:16:24.336Z,11.00
2018-09-09T04:17:24.326Z,10.80
2018-09-09T04:18:24.308Z,10.70
2018-09-09T04:19:24.301Z,11.30
2018-09-09T04:20:24.282Z,10.50
2018-09-09T04:21:24.265Z,10.80
2018-09-09T04:22:24.257Z,10.40
2018-09-09T04:23:24.241Z,11.20
2018-09-09T04:24:24.223Z,11.10
2018-09-09T04:25:24.206Z,10.90
2018-09-09T04:26:24.193Z,10.10
2018-09-09T04:27:24.180Z,11.10
2018-09-09T04:28:24.164Z,10.90
2018-09-09T04:29:24.150Z,11.10
2018-09-09T04:30:24.141Z,10.70
2018-09-09T04:31:24.123Z,10.90
2018-09-09T04:32:24.107Z,10.70
2018-09-09T04:33:24.096Z,10.50
2018-09-09T04:34:24.086Z,10.40
2018-09-09T04:35:24.067Z,10.80
2018-09-09T04:36:24.051Z,10.50
2018-09-09T04:37:24.038Z,10.70
2018-09-09T04:38:24.027Z,10.10
2018-09-09T04:39:24.009Z,10.80
2018-09-09T04:40:23.994Z,10.40
2018-09-09T04:41:23.980Z,10.70
2018-09-09T04:42:23.969Z,10.10
2018-09-09T04:43:23.950Z,9.80
2018-09-09T04:44:23.937Z,10.90
2018-09-09T04:45:23.924Z,10.40
2018-09-09T04:46:24.054Z,10.80
2018-09-09T04:47:23.893Z,11.00
2018-09-09T04:48:23.879Z,10.60
2018-09-09T04:49:23.865Z,9.90
2018-09-09T04:50:23.858Z,11.00
2018-09-09T04:51:23.837Z,10.70
2018-09-09T04:52:23.824Z,10.40
2018-09-09T04:53:23.813Z,10.50
2018-09-09T04:54:23.799Z,11.50
2018-09-09T04:55:23.785Z,10.90
2018-09-09T04:56:23.766Z,10.80
2018-09-09T04:57:23.751Z,11.00
2018-09-09T04:58:23.738Z,11.40
2018-09-09T04:59:23.723Z,10.70
2018-09-09T05:00:23.711Z,10.70
2018-09-09T05:01:23.765Z,10.40
2018-09-09T05:02:23.681Z,10.20
2018-09-09T05:03:23.672Z,10.30
2018-09-09T05:04:23.651Z,10.50
2018-09-09T05:05:23.641Z,10.90
2018-09-09T05:06:23.627Z,11.00
2018-09-09T05:07:23.610Z,11.10
2018-09-09T05:08:23.600Z,10.60
2018-09-09T05:09:23.583Z,10.10
2018-09-09T05:10:23.569Z,11.10
2018-09-09T05:11:23.556Z,10.80
2018-09-09T05:12:23.537Z,10.60
2018-09-09T05:13:23.542Z,10.20
2018-09-09T05:14:23.512Z,10.50
2018-09-09T05:15:23.496Z,10.50
2018-09-09T05:16:23.480Z,10.60
2018-09-09T05:17:23.466Z,10.50
2018-09-09T05:18:23.451Z,10.00
2018-09-09T05:19:23.449Z,10.20
2018-09-09T05:20:23.426Z,10.50
2018-09-09T05:21:23.408Z,10.10
2018-09-09T05:22:23.395Z,10.30
2018-09-09T05:23:23.390Z,10.30
2018-09-09T05:24:23.364Z,10.20
2018-09-09T05:25:23.351Z,10.30
2018-09-09T05:26:23.337Z,10.50
2018-09-09T05:27:23.327Z,9.90
2018-09-09T05:28:23.308Z,9.60
2018-09-09T05:29:23.294Z,10.10
2018-09-09T05:30:23.284Z,10.00
2018-09-09T05:31:23.272Z,10.00
2018-09-09T05:32:23.258Z,10.30
2018-09-09T05:33:23.245Z,10.20
2018-09-09T05:34:23.227Z,10.80
2018-09-09T05:35:23.214Z,10.10
2018-09-09T05:36:23.197Z,10.70
2018-09-09T05:37:23.186Z,10.00
2018-09-09T05:38:23.171Z,10.20
2018-09-09T05:39:23.155Z,10.30
2018-09-09T05:40:23.140Z,9.50
2018-09-09T05:41:23.131Z,10.00
2018-09-09T05:42:23.173Z,9.80
2018-09-09T05:43:23.105Z,10.10
2018-09-09T05:44:23.082Z,9.40
2018-09-09T05:45:23.069Z,10.00
2018-09-09T05:46:23.057Z,9.50
2018-09-09T05:47:23.042Z,10.20
2018-09-09T05:48:23.027Z,10.10
2018-09-09T05:49:23.011Z,9.50
2018-09-09T05:50:22.998Z,9.70
2018-09-09T05:51:22.993Z,9.70
2018-09-09T05:52:22.972Z,10.10
2018-09-09T05:53:22.965Z,9.60
2018-09-09T05:54:22.951Z,9.70
2018-09-09T05:55:22.927Z,10.30
2018-09-09T05:56:22.912Z,9.90
2018-09-09T05:57:22.911Z,10.40
2018-09-09T05:58:22.884Z,10.80
2018-09-09T05:59:22.870Z,10.10
2018-09-09T06:00:22.855Z,9.80
2018-09-09T06:01:22.844Z,9.50
2018-09-09T06:02:22.828Z,10.00
2018-09-09T06:03:22.818Z,10.00
2018-09-09T06:04:22.797Z,10.30
2018-09-09T06:05:22.784Z,9.10
2018-09-09T06:06:22.773Z,10.20
2018-09-09T06:07:22.755Z,10.00
2018-09-09T06:08:22.742Z,10.00
2018-09-09T06:09:22.730Z,10.00
2018-09-09T06:10:22.717Z,10.10
2018-09-09T06:11:22.709Z,9.70
2018-09-09T06:12:22.684Z,9.60
2018-09-09T06:13:22.669Z,9.70
2018-09-09T06:14:22.655Z,9.70
2018-09-09T06:15:22.643Z,9.30
2018-09-09T06:16:22.627Z,9.70
2018-09-09T06:17:22.614Z,9.00
2018-09-09T06:18:22.600Z,9.70
2018-09-09T06:19:22.590Z,10.00
2018-09-09T06:20:22.572Z,10.00
2018-09-09T06:21:22.557Z,9.80
2018-09-09T06:22:22.545Z,9.70
2018-09-09T06:23:22.530Z,9.20
2018-09-09T06:24:22.518Z,9.10
2018-09-09T06:25:22.511Z,9.80
2018-09-09T06:26:22.489Z,8.90
2018-09-09T06:27:22.476Z,9.70
2018-09-09T06:28:22.569Z,9.40
2018-09-09T06:29:22.452Z,9.10
2018-09-09T06:30:22.433Z,9.80
2018-09-09T06:31:22.428Z,8.80
2018-09-09T06:32:22.407Z,9.30
2018-09-09T06:33:22.393Z,9.30
2018-09-09T06:34:22.381Z,9.70
2018-09-09T06:35:22.405Z,9.70
2018-09-09T06:36:22.350Z,10.00
2018-09-09T06:37:22.335Z,9.30
2018-09-09T06:38:22.326Z,9.50
2018-09-09T06:39:22.307Z,9.00
2018-09-09T06:40:22.297Z,9.30
2018-09-09T06:41:22.282Z,9.30
2018-09-09T06:42:22.269Z,10.00
2018-09-09T06:43:22.267Z,9.30
2018-09-09T06:44:22.240Z,9.60
2018-09-09T06:45:22.232Z,9.50
2018-09-09T06:46:22.256Z,8.40
2018-09-09T06:47:22.203Z,9.10
2018-09-09T06:48:22.189Z,9.00
2018-09-09T06:49:22.183Z,9.40
2018-09-09T06:50:22.162Z,9.00
2018-09-09T06:51:22.192Z,9.40
2018-09-09T06:52:22.135Z,9.20
2018-09-09T06:53:22.123Z,9.50
2018-09-09T06:54:22.108Z,9.70
2018-09-09T06:55:22.146Z,9.20
2018-09-09T06:56:22.084Z,9.20
2018-09-09T06:57:22.073Z,8.90
2018-09-09T06:58:22.061Z,8.90
2018-09-09T06:59:22.052Z,9.70
2018-09-09T07:00:22.035Z,8.70
2018-09-09T07:01:22.023Z,9.20
2018-09-09T07:02:22.117Z,9.60
2018-09-09T07:03:22.002Z,8.90
2018-09-09T07:04:21.992Z,8.90
2018-09-09T07:05:21.978Z,8.90
2018-09-09T07:06:21.969Z,8.10
2018-09-09T07:07:21.967Z,8.70
2018-09-09T07:08:21.946Z,8.40
2018-09-09T07:09:21.937Z,8.60
2018-09-09T07:10:21.933Z,8.40
2018-09-09T07:11:22.015Z,8.10
2018-09-09T07:12:21.914Z,8.10
2018-09-09T07:13:21.905Z,8.20
2018-09-09T07:14:21.896Z,7.30
2018-09-09T07:15:21.891Z,6.80
2018-09-09T07:16:21.880Z,7.60
2018-09-09T07:17:21.881Z,7.80
2018-09-09T07:18:21.866Z,7.20
2018-09-09T07:19:21.855Z,6.70
2018-09-09T07:20:21.847Z,7.20
2018-09-09T07:21:21.842Z,7.30
2018-09-09T07:22:21.835Z,7.10
2018-09-09T07:23:21.828Z,7.90
2018-09-09T07:24:21.816Z,7.20
2018-09-09T07:25:21.812Z,7.30
2018-09-09T07:26:21.799Z,7.20
2018-09-09T07:27:21.795Z,6.80
2018-09-09T07:28:21.819Z,6.60
2018-09-09T07:29:21.779Z,6.80
2018-09-09T07:30:21.771Z,6.80
2018-09-09T07:31:21.765Z,6.90
2018-09-09T07:32:21.756Z,7.10
2018-09-09T07:33:21.754Z,6.80
2018-09-09T07:34:21.861Z,7.10
2018-09-09T07:35:21.733Z,7.00
2018-09-09T07:36:21.728Z,7.40
2018-09-09T07:37:21.749Z,7.30
2018-09-09T07:38:21.711Z,7.00
2018-09-09T07:39:21.710Z,7.10
2018-09-09T07:40:21.694Z,7.60
2018-09-09T07:41:21.685Z,6.20
2018-09-09T07:42:21.678Z,7.00
2018-09-09T07:43:21.671Z,6.50
2018-09-09T07:44:21.660Z,7.20
2018-09-09T07:45:21.654Z,6.80
2018-09-09T07:46:21.695Z,6.80
2018-09-09T07:47:21.645Z,6.90
2018-09-09T07:48:21.629Z,6.90
2018-09-09T07:49:21.621Z,6.50
2018-09-09T07:50:21.639Z,6.70
2018-09-09T07:51:21.600Z,6.10
2018-09-09T07:52:21.590Z,6.50
2018-09-09T07:53:21.581Z,6.60
2018-09-09T07:54:21.571Z,6.80
2018-09-09T07:55:21.568Z,6.60
2018-09-09T07:56:21.590Z,6.60
2018-09-09T07:57:21.543Z,6.80
2018-09-09T07:58:21.532Z,7.30
2018-09-09T07:59:21.525Z,6.30
2018-09-09T08:00:21.527Z,6.70
2018-09-09T08:01:21.500Z,7.30
2018-09-09T08:02:21.490Z,7.00
2018-09-09T08:03:21.481Z,6.80
2018-09-09T08:04:21.473Z,6.50
2018-09-09T08:05:21.461Z,7.30
2018-09-09T08:06:21.446Z,7.10
2018-09-09T08:07:21.435Z,6.60
2018-09-09T08:08:21.431Z,6.60
2018-09-09T08:09:21.414Z,7.10
2018-09-09T08:10:21.404Z,6.80
2018-09-09T08:11:21.398Z,7.40
2018-09-09T08:12:21.385Z,6.80
2018-09-09T08:13:21.370Z,7.00
2018-09-09T08:14:21.364Z,24.90
2018-09-09T08:15:21.352Z,10.00
2018-09-09T08:16:21.337Z,7.50
2018-09-09T08:17:21.333Z,6.70
2018-09-09T08:18:21.380Z,7.10
2018-09-09T08:19:21.303Z,6.10
2018-09-09T08:20:21.291Z,7.40
2018-09-09T08:21:21.282Z,6.80
2018-09-09T08:22:21.269Z,6.80
2018-09-09T08:23:21.260Z,6.60
2018-09-09T08:24:21.253Z,6.70
2018-09-09T08:25:21.238Z,6.10
2018-09-09T08:26:21.234Z,6.50
2018-09-09T08:27:21.216Z,6.30
2018-09-09T08:28:21.205Z,6.00
2018-09-09T08:29:21.192Z,5.80
2018-09-09T08:30:21.187Z,6.00
2018-09-09T08:31:21.171Z,5.90
2018-09-09T08:32:21.154Z,5.60
2018-09-09T08:33:21.147Z,5.70
2018-09-09T08:34:21.136Z,5.60
2018-09-09T08:35:21.124Z,5.50
2018-09-09T08:36:21.114Z,5.40
2018-09-09T08:37:21.105Z,5.20
2018-09-09T08:38:21.088Z,5.30
2018-09-09T08:39:21.081Z,5.60
2018-09-09T08:40:21.067Z,5.50
2018-09-09T08:41:21.054Z,5.10
2018-09-09T08:42:21.043Z,5.10
2018-09-09T08:43:21.032Z,5.30
2018-09-09T08:44:21.024Z,5.20
2018-09-09T08:45:21.068Z,5.20
2018-09-09T08:46:21.000Z,5.00
2018-09-09T08:47:20.990Z,5.30
2018-09-09T08:48:20.976Z,5.10
2018-09-09T08:49:20.977Z,5.20
2018-09-09T08:50:20.960Z,4.90
2018-09-09T08:51:20.946Z,5.40
2018-09-09T08:52:20.938Z,6.60
2018-09-09T08:53:20.926Z,6.10
2018-09-09T08:54:20.920Z,5.80
2018-09-09T08:55:20.908Z,5.80
2018-09-09T08:56:20.904Z,8.10
2018-09-09T08:57:20.886Z,31.60
2018-09-09T08:58:20.877Z,15.20
2018-09-09T08:59:20.877Z,12.30
2018-09-09T09:00:20.859Z,6.30
2018-09-09T09:01:20.848Z,9.30
2018-09-09T09:02:20.840Z,13.80
2018-09-09T09:03:20.833Z,27.10
2018-09-09T09:04:20.829Z,7.90
2018-09-09T09:05:20.814Z,39.20
2018-09-09T09:06:20.811Z,13.90
2018-09-09T09:07:20.812Z,22.40
2018-09-09T09:08:20.795Z,9.00
2018-09-09T09:09:20.785Z,9.90
2018-09-09T09:10:20.779Z,5.90
2018-09-09T09:11:20.769Z,4.50
2018-09-09T09:12:20.759Z,6.70
2018-09-09T09:13:20.753Z,6.20
2018-09-09T09:14:20.743Z,4.50
2018-09-09T09:15:20.738Z,5.30
2018-09-09T09:16:20.729Z,4.50
2018-09-09T09:17:20.725Z,5.30
2018-09-09T09:18:20.716Z,5.00
2018-09-09T09:19:20.711Z,5.30
2018-09-09T09:20:20.703Z,3.90
2018-09-09T09:21:20.692Z,3.90
2018-09-09T09:22:20.684Z,4.30
2018-09-09T09:23:20.680Z,4.50
2018-09-09T09:24:20.693Z,4.40
2018-09-09T09:25:20.664Z,4.20
2018-09-09T09:26:20.656Z,4.50
2018-09-09T09:27:20.649Z,4.10
2018-09-09T09:28:20.639Z,4.10
2018-09-09T09:29:20.634Z,4.00
2018-09-09T09:30:20.633Z,3.90
2018-09-09T09:31:20.619Z,4.40
2018-09-09T09:32:20.614Z,4.50
2018-09-09T09:33:20.603Z,4.00
2018-09-09T09:34:20.658Z,4.20
2018-09-09T09:35:20.599Z,4.10
2018-09-09T09:36:20.587Z,4.10
2018-09-09T09:37:20.576Z,4.20
2018-09-09T09:38:20.573Z,5.20
2018-09-09T09:39:20.597Z,4.20
2018-09-09T09:40:20.558Z,4.30
2018-09-09T09:41:20.549Z,3.90
2018-09-09T09:42:20.541Z,4.20
2018-09-09T09:43:20.543Z,3.90
2018-09-09T09:44:20.532Z,4.00
2018-09-09T09:45:20.520Z,4.20
2018-09-09T09:46:20.513Z,4.20
2018-09-09T09:47:20.519Z,3.90
2018-09-09T09:48:20.495Z,4.10
2018-09-09T09:49:20.489Z,4.40
2018-09-09T09:50:20.482Z,4.40
2018-09-09T09:51:20.476Z,3.90
2018-09-09T09:52:20.468Z,4.20
2018-09-09T09:53:20.580Z,3.80
2018-09-09T09:54:20.452Z,4.10
2018-09-09T09:55:20.488Z,3.70
2018-09-09T09:56:20.434Z,3.40
2018-09-09T09:57:20.428Z,3.80
2018-09-09T09:58:20.418Z,3.70
2018-09-09T09:59:20.414Z,4.10
2018-09-09T10:00:20.405Z,4.10
2018-09-09T10:01:20.395Z,4.00
2018-09-09T10:02:20.385Z,3.60
2018-09-09T10:03:20.381Z,3.80
2018-09-09T10:04:20.368Z,3.80
2018-09-09T10:05:20.360Z,3.90
2018-09-09T10:06:20.352Z,4.10
2018-09-09T10:07:20.345Z,3.80
2018-09-09T10:08:20.336Z,4.00
2018-09-09T10:09:20.328Z,3.90
2018-09-09T10:10:20.323Z,4.20
2018-09-09T10:11:20.318Z,4.40
2018-09-09T10:12:20.303Z,4.00
2018-09-09T10:13:20.297Z,4.20
2018-09-09T10:14:20.296Z,4.80
2018-09-09T10:15:20.276Z,4.10
2018-09-09T10:16:20.271Z,3.80
2018-09-09T10:17:20.270Z,4.40
2018-09-09T10:18:20.255Z,4.20
2018-09-09T10:19:20.243Z,4.00
2018-09-09T10:20:20.239Z,4.10
2018-09-09T10:21:20.227Z,3.90
2018-09-09T10:22:20.219Z,4.00
2018-09-09T10:23:20.208Z,4.20
2018-09-09T10:24:20.199Z,4.20
2018-09-09T10:25:20.191Z,4.40
2018-09-09T10:26:20.183Z,3.80
2018-09-09T10:27:20.173Z,4.40
2018-09-09T10:28:20.169Z,3.80
2018-09-09T10:29:20.170Z,4.40
2018-09-09T10:30:20.152Z,4.00
2018-09-09T10:31:20.139Z,4.30
2018-09-09T10:32:20.131Z,4.30
2018-09-09T10:33:20.122Z,4.10
2018-09-09T10:34:20.114Z,4.50
2018-09-09T10:35:20.108Z,3.90
2018-09-09T10:36:20.096Z,4.40
2018-09-09T10:37:20.090Z,4.20
2018-09-09T10:38:20.081Z,4.20
2018-09-09T10:39:20.074Z,4.10
2018-09-09T10:40:20.062Z,4.20
2018-09-09T10:41:20.058Z,4.50
2018-09-09T10:42:20.052Z,4.10
2018-09-09T10:43:20.046Z,4.30
2018-09-09T10:44:20.032Z,3.80
2018-09-09T10:45:20.026Z,3.70
2018-09-09T10:46:20.139Z,4.10
2018-09-09T10:47:20.015Z,3.70
2018-09-09T10:48:20.004Z,3.40
2018-09-09T10:49:20.005Z,3.90
2018-09-09T10:50:19.986Z,3.80
2018-09-09T10:51:19.983Z,4.10
2018-09-09T10:52:19.972Z,10.50
2018-09-09T10:53:19.965Z,4.40
2018-09-09T10:54:19.959Z,4.00
2018-09-09T10:55:19.954Z,4.50
2018-09-09T10:56:19.942Z,3.90
2018-09-09T10:57:19.936Z,3.40
2018-09-09T10:58:19.926Z,3.50
2018-09-09T10:59:19.919Z,3.20
2018-09-09T11:00:19.914Z,3.20
2018-09-09T11:01:19.905Z,3.20
2018-09-09T11:02:19.903Z,3.30
2018-09-09T11:03:19.891Z,3.20
2018-09-09T11:04:19.884Z,3.50
2018-09-09T11:05:19.878Z,3.20
2018-09-09T11:06:19.870Z,3.50
2018-09-09T11:07:19.863Z,3.10
2018-09-09T11:08:19.862Z,3.60
2018-09-09T11:09:19.851Z,3.40
2018-09-09T11:10:19.843Z,3.00
2018-09-09T11:11:19.835Z,2.90
2018-09-09T11:12:19.829Z,3.10
2018-09-09T11:13:19.827Z,3.80
2018-09-09T11:14:19.814Z,5.60
2018-09-09T11:15:19.809Z,3.20
2018-09-09T11:16:19.807Z,3.40
2018-09-09T11:17:19.798Z,3.10
2018-09-09T11:18:19.787Z,3.40
2018-09-09T11:19:19.796Z,3.10
2018-09-09T11:20:19.777Z,3.10
2018-09-09T11:21:19.774Z,3.00
2018-09-09T11:22:19.763Z,2.90
2018-09-09T11:23:19.760Z,3.40
2018-09-09T11:24:19.785Z,2.90
2018-09-09T11:25:19.745Z,3.20
2018-09-09T11:26:19.730Z,2.90
2018-09-09T11:27:19.730Z,2.60
2018-09-09T11:28:19.724Z,3.00
2018-09-09T11:29:19.710Z,3.20
2018-09-09T11:30:19.698Z,3.00
2018-09-09T11:31:19.708Z,3.30
2018-09-09T11:32:19.681Z,2.90
2018-09-09T11:33:19.675Z,3.20
2018-09-09T11:34:19.678Z,3.00
2018-09-09T11:35:19.663Z,3.20
2018-09-09T11:36:19.685Z,3.30
2018-09-09T11:37:19.649Z,3.10
2018-09-09T11:38:19.639Z,3.20
2018-09-09T11:39:19.640Z,2.70
2018-09-09T11:40:19.624Z,3.20
2018-09-09T11:41:19.614Z,3.60
2018-09-09T11:42:19.613Z,3.40
2018-09-09T11:43:19.613Z,3.30
2018-09-09T11:44:19.599Z,3.70
2018-09-09T11:45:19.591Z,3.80
2018-09-09T11:46:19.578Z,3.30
2018-09-09T11:47:19.579Z,3.40
2018-09-09T11:48:19.569Z,3.70
2018-09-09T11:49:19.556Z,3.70
2018-09-09T11:50:19.552Z,3.50
2018-09-09T11:51:19.546Z,3.50
2018-09-09T11:52:19.530Z,3.30
2018-09-09T11:53:19.626Z,3.50
2018-09-09T11:54:19.518Z,3.50
2018-09-09T11:55:19.508Z,3.60
2018-09-09T11:56:19.504Z,3.60
2018-09-09T11:57:19.492Z,3.40
2018-09-09T11:58:19.482Z,3.90
2018-09-09T11:59:19.483Z,3.60
2018-09-09T12:00:19.467Z,3.60
2018-09-09T12:01:19.460Z,3.50
2018-09-09T12:02:19.454Z,3.40
2018-09-09T12:03:19.457Z,3.60
2018-09-09T12:04:19.440Z,3.40
2018-09-09T12:05:19.431Z,3.60
2018-09-09T12:06:19.425Z,3.40
2018-09-09T12:07:19.427Z,3.80
2018-09-09T12:08:19.406Z,3.20
2018-09-09T12:09:19.400Z,3.40
2018-09-09T12:10:19.396Z,3.00
2018-09-09T12:11:19.391Z,3.10
2018-09-09T12:12:19.379Z,25.90
2018-09-09T12:13:19.370Z,8.20
2018-09-09T12:14:19.374Z,3.30
2018-09-09T12:15:19.361Z,3.20
2018-09-09T12:16:19.348Z,3.60
2018-09-09T12:17:19.346Z,3.10
2018-09-09T12:18:19.356Z,3.20
2018-09-09T12:19:19.332Z,2.80
2018-09-09T12:20:19.338Z,3.00
2018-09-09T12:21:19.321Z,3.00
2018-09-09T12:22:19.308Z,3.00
2018-09-09T12:23:19.303Z,3.10
2018-09-09T12:24:19.305Z,3.20
2018-09-09T12:25:19.290Z,3.30
2018-09-09T12:26:19.286Z,2.80
2018-09-09T12:27:19.274Z,3.20
2018-09-09T12:28:19.265Z,3.00
2018-09-09T12:29:19.270Z,3.10
2018-09-09T12:30:19.257Z,2.80
2018-09-09T12:31:19.245Z,3.00
2018-09-09T12:32:19.326Z,3.00
2018-09-09T12:33:19.234Z,3.00
2018-09-09T12:34:19.226Z,2.90
2018-09-09T12:35:19.217Z,3.00
2018-09-09T12:36:19.210Z,2.90
2018-09-09T12:37:19.209Z,3.10
2018-09-09T12:38:19.197Z,3.00
2018-09-09T12:39:19.189Z,2.80
2018-09-09T12:40:19.181Z,2.30
2018-09-09T12:41:19.178Z,2.60
2018-09-09T12:42:19.183Z,2.60
2018-09-09T12:43:19.160Z,2.50
2018-09-09T12:44:19.153Z,2.70
2018-09-09T12:45:19.145Z,2.30
2018-09-09T12:46:19.140Z,2.70
2018-09-09T12:47:19.284Z,2.20
2018-09-09T12:48:19.127Z,2.50
2018-09-09T12:49:19.133Z,2.20
2018-09-09T12:50:19.114Z,2.00
2018-09-09T12:51:19.112Z,2.00
2018-09-09T12:52:19.097Z,2.30
2018-09-09T12:53:19.123Z,2.20
2018-09-09T12:54:19.091Z,2.10
2018-09-09T12:55:19.090Z,2.50
2018-09-09T12:56:19.069Z,2.50
2018-09-09T12:57:19.066Z,2.70
2018-09-09T12:58:19.057Z,2.60
2018-09-09T12:59:19.063Z,2.20
2018-09-09T13:00:19.090Z,2.40
2018-09-09T13:01:19.044Z,2.50
2018-09-09T13:02:19.032Z,2.30
2018-09-09T13:03:19.034Z,2.40
2018-09-09T13:04:19.018Z,2.30
2018-09-09T13:05:19.013Z,2.00
2018-09-09T13:06:19.010Z,2.90
2018-09-09T13:07:19.049Z,2.50
2018-09-09T13:08:18.990Z,2.40
2018-09-09T13:09:18.982Z,2.60
2018-09-09T13:10:18.980Z,2.40
2018-09-09T13:11:18.970Z,2.50